This is the latest recevied weather packets stored in our database for station/object WC0AA15WX. If no packets are shown the sender has not sent any weather packets the latest 10 day(s).
| Time | Temp. | Humidity | Pressure | Rain* | Wind** | Luminosity | Snow |
|---|---|---|---|---|---|---|---|
| 1777479466 | 12.78° C | 68% | 1026.8 hPa | 0 mm | - | - | - |
| 1777478866 | 13.33° C | 66% | 1026.4 hPa | 0 mm | - | - | - |
| 1777478266 | 13.33° C | 66% | 1026.7 hPa | 0 mm | - | - | - |
| 1777477666 | 13.33° C | 68% | 1026.5 hPa | 0 mm | - | - | - |
| 1777477066 | 12.78° C | 69% | 1026.4 hPa | 0 mm | - | - | - |
| 1777476466 | 12.78° C | 69% | 1026.4 hPa | 0 mm | - | - | - |
| 1777475866 | 12.22° C | 71% | 1026.4 hPa | 0 mm | - | - | - |
| 1777475266 | 11.67° C | 73% | 1026.4 hPa | 0 mm | - | - | - |
| 1777474666 | 11.11° C | 75% | 1026.4 hPa | 0 mm | - | - | - |
| 1777474066 | 10.56° C | 76% | 1026.4 hPa | 0 mm | - | - | - |
| 1777473466 | 11.11° C | 75% | 1026.4 hPa | 0 mm | - | - | - |
| 1777472866 | 10.56° C | 77% | 1026.4 hPa | 0 mm | - | - | - |
| 1777472266 | 10° C | 80% | 1026.4 hPa | 0 mm | - | - | - |
| 1777471666 | 9.44° C | 81% | 1026.4 hPa | 0 mm | - | - | - |
| 1777471242 | 9.44° C | 82% | 1026.4 hPa | 0 mm | - | - | - |
| 1777471066 | 9.44° C | 82% | 1026.4 hPa | 0 mm | - | - | - |
| 1777470466 | 8.89° C | 84% | 1026.4 hPa | 0 mm | - | - | - |
| 1777469960 | 8.33° C | 85% | 1026.4 hPa | 0 mm | - | - | - |
| 1777469866 | 8.33° C | 85% | 1026.4 hPa | 0 mm | - | - | - |
| 1777469266 | 7.78° C | 87% | 1026.4 hPa | 0 mm | - | - | - |
| 1777468666 | 7.22° C | 88% | 1026.4 hPa | 0 mm | - | - | - |
| 1777468066 | 7.22° C | 89% | 1026.4 hPa | 0 mm | - | - | - |
| 1777467466 | 6.67° C | 90% | 1026.1 hPa | 0 mm | - | - | - |
| 1777466865 | 6.11° C | 90% | 1026.1 hPa | 0 mm | - | - | - |
| 1777466265 | 6.11° C | 91% | 1026.1 hPa | 0 mm | - | - | - |
* Rain latest hour (hover to see other rain measurements)
** Current wind speed in m/s (hover to see current wind gust speed)